Bonaria — ICUS — position and weather

sailwx.info

Track history (hours):
 
Tides and Currents Weather Stations Pressure Air Temp Water Temp Dewpoint Dewpoint Depression Visibility Wind Speed Wind Dir Waves Ship Positions

Bonaria

Last reported at 2015-Jan-30 21:31 UTC. Time now 2015-Jan-31 00:50 UTC.
Position N 40°55' E 009°32'.

Length 213 m; draft 6.8 m.

Type: Passenger vessel. MMSI: 247322400.

Date/timePositionNaut miles runAvg speedWind from/ knotsBaromVisibWave heightAir tempDewpointWater temp
2015-Jan-30 21:31N 40°55' E 009°32'0 0.0
2015-Jan-30 19:21N 40°55' E 009°32'0 0.0
2015-Jan-30 18:15N 40°55' E 009°32'0 0.0
2015-Jan-30 16:17N 40°55' E 009°32'0 0.0
2015-Jan-30 15:19N 40°55' E 009°32'0 0.0
2015-Jan-30 14:31N 40°55' E 009°32'0 0.0
2015-Jan-30 12:21N 40°55' E 009°32'0 0.0
2015-Jan-30 11:27N 40°55' E 009°32'0 0.0
2015-Jan-30 10:05N 40°55' E 009°32'0 0.0
2015-Jan-30 09:32N 40°55' E 009°32'0 0.0
2015-Jan-30 08:25N 40°55' E 009°32'0 0.0
2015-Jan-30 07:31N 40°55' E 009°32'0 0.0
2015-Jan-30 06:09N 40°55' E 009°32'0 0.0
2015-Jan-30 05:33N 40°55' E 009°32'0 0.0
2015-Jan-28 21:33N 40°55' E 009°32'0 0.0
2015-Jan-28 20:33N 40°55' E 009°31'0 0.0
2015-Jan-28 19:33N 40°55' E 009°31'0 0.0
2015-Jan-28 15:33N 40°55' E 009°31'0 0.0
2015-Jan-28 14:32N 40°55' E 009°31'0 0.0
2015-Jan-28 13:33N 40°55' E 009°31'0 0.0
2015-Jan-28 12:33N 40°55' E 009°31'0 0.0
2015-Jan-28 11:33N 40°55' E 009°31'0 0.0
2015-Jan-28 10:33N 40°55' E 009°31'0 0.0
2015-Jan-28 09:33N 40°55' E 009°31'0 0.0
2015-Jan-28 08:33N 40°55' E 009°31'0 0.0
2015-Jan-28 07:33N 40°55' E 009°31'0 0.0
2015-Jan-28 06:33N 40°55' E 009°31'0 0.0
2015-Jan-28 05:33N 40°55' E 009°31'3 3.2
2015-Jan-28 04:32N 40°56' E 009°36'  
2015-Jan-24 17:33N 39°09' E 009°10'4 4.3
2015-Jan-24 16:32N 39°13' E 009°06'0 0.0
2015-Jan-24 15:31N 39°13' E 009°06'0 0.0
2015-Jan-24 14:30N 39°13' E 009°06'0 0.0
2015-Jan-24 13:33N 39°13' E 009°06'0 0.0
2015-Jan-24 12:33N 39°13' E 009°06'0 0.0
2015-Jan-24 11:33N 39°13' E 009°06'0 0.0
2015-Jan-24 10:32N 39°13' E 009°06'0 0.2
2015-Jan-24 09:33N 39°12' E 009°07'1313.2
2015-Jan-24 08:33N 39°04' E 009°20'112 3.2
2015-Jan-22 21:30N 40°55' E 009°32'0 0.0
2015-Jan-22 17:28N 40°55' E 009°32'0 0.0
2015-Jan-20 21:33N 40°55' E 009°32'  
Track history (hours):
 
Tides and Currents Weather Stations Pressure Air Temp Water Temp Dewpoint Dewpoint Depression Visibility Wind Speed Wind Dir Waves Ship Positions

Bonaria

Last reported at 2015-Jan-30 21:31 UTC. Time now 2015-Jan-31 00:50 UTC.
Position N 40°55' E 009°32'.

Length 213 m; draft 6.8 m.

Type: Passenger vessel. MMSI: 247322400.

Date/timePositionNaut miles runAvg speedWind from/ knotsBaromVisibWave heightAir tempDewpointWater temp
2015-Jan-30 21:31N 40°55' E 009°32'0 0.0
2015-Jan-30 19:21N 40°55' E 009°32'0 0.0
2015-Jan-30 18:15N 40°55' E 009°32'0 0.0
2015-Jan-30 16:17N 40°55' E 009°32'0 0.0
2015-Jan-30 15:19N 40°55' E 009°32'0 0.0
2015-Jan-30 14:31N 40°55' E 009°32'0 0.0
2015-Jan-30 12:21N 40°55' E 009°32'0 0.0
2015-Jan-30 11:27N 40°55' E 009°32'0 0.0
2015-Jan-30 10:05N 40°55' E 009°32'0 0.0
2015-Jan-30 09:32N 40°55' E 009°32'0 0.0
2015-Jan-30 08:25N 40°55' E 009°32'0 0.0
2015-Jan-30 07:31N 40°55' E 009°32'0 0.0
2015-Jan-30 06:09N 40°55' E 009°32'0 0.0
2015-Jan-30 05:33N 40°55' E 009°32'0 0.0
2015-Jan-28 21:33N 40°55' E 009°32'0 0.0
2015-Jan-28 20:33N 40°55' E 009°31'0 0.0
2015-Jan-28 19:33N 40°55' E 009°31'0 0.0
2015-Jan-28 15:33N 40°55' E 009°31'0 0.0
2015-Jan-28 14:32N 40°55' E 009°31'0 0.0
2015-Jan-28 13:33N 40°55' E 009°31'0 0.0
2015-Jan-28 12:33N 40°55' E 009°31'0 0.0
2015-Jan-28 11:33N 40°55' E 009°31'0 0.0
2015-Jan-28 10:33N 40°55' E 009°31'0 0.0
2015-Jan-28 09:33N 40°55' E 009°31'0 0.0
2015-Jan-28 08:33N 40°55' E 009°31'0 0.0
2015-Jan-28 07:33N 40°55' E 009°31'0 0.0
2015-Jan-28 06:33N 40°55' E 009°31'0 0.0
2015-Jan-28 05:33N 40°55' E 009°31'3 3.2
2015-Jan-28 04:32N 40°56' E 009°36'  
2015-Jan-24 17:33N 39°09' E 009°10'4 4.3
2015-Jan-24 16:32N 39°13' E 009°06'0 0.0
2015-Jan-24 15:31N 39°13' E 009°06'0 0.0
2015-Jan-24 14:30N 39°13' E 009°06'0 0.0
2015-Jan-24 13:33N 39°13' E 009°06'0 0.0
2015-Jan-24 12:33N 39°13' E 009°06'0 0.0
2015-Jan-24 11:33N 39°13' E 009°06'0 0.0
2015-Jan-24 10:32N 39°13' E 009°06'0 0.2
2015-Jan-24 09:33N 39°12' E 009°07'1313.2
2015-Jan-24 08:33N 39°04' E 009°20'112 3.2
2015-Jan-22 21:30N 40°55' E 009°32'0 0.0
2015-Jan-22 17:28N 40°55' E 009°32'0 0.0
2015-Jan-20 21:33N 40°55' E 009°32'  

Dump ship's entire track history